Martinsville, Virginia
Current Conditions -  °F | °C
As of 8:35 AM on Wednesday 22 Oct 2014 (Local Time) from KMTV Reporting Station
Clear Clear  
Wind Chill: 10°   Ceiling: Unl
Heat Index: 10°   Visibility: 10mi
Dew Point:   Wind: 7mph
Humidity: 64%   Direction: 350°N
Pressure: 30.05"   Gusts: NA
Location:  36.69°N, 79.87°W
Report Text: KMTV 221235Z AUTO 35006KT 10SM CLR 10/04 A3005 RMK AO2 T01040038
Loading
Personal Weather Stations






























Interactive Weather Map
Tropical Storm Tracking
New forecast layout! Learn more

10-Day Weather Forecast

Advertisements
Track Severe Weather on mobile